createdAt,value
2023-03-16T00:02:05.014Z,6.70
2023-03-16T00:04:32.531Z,6.60
2023-03-16T00:06:59.330Z,6.70
2023-03-16T00:09:31.115Z,6.80
2023-03-16T00:12:03.148Z,6.80
2023-03-16T00:14:31.404Z,6.80
2023-03-16T00:16:58.220Z,6.70
2023-03-16T00:19:24.939Z,6.70
2023-03-16T00:21:52.546Z,6.70
2023-03-16T00:24:19.985Z,6.70
2023-03-16T00:26:47.648Z,6.70
2023-03-16T00:29:14.888Z,6.60
2023-03-16T00:31:45.013Z,6.70
2023-03-16T00:34:12.760Z,6.70
2023-03-16T00:36:39.379Z,6.70
2023-03-16T00:39:06.797Z,6.70
2023-03-16T00:41:37.855Z,6.70
2023-03-16T00:44:05.679Z,6.70
2023-03-16T00:46:32.684Z,6.70
2023-03-16T00:48:59.460Z,6.70
2023-03-16T00:51:26.093Z,6.70
2023-03-16T00:53:52.851Z,6.70
2023-03-16T00:56:19.517Z,6.70
2023-03-16T00:58:46.191Z,6.70
2023-03-16T01:01:16.397Z,6.70
2023-03-16T01:03:43.556Z,6.70
2023-03-16T01:06:13.422Z,6.70
2023-03-16T01:08:40.576Z,6.60
2023-03-16T01:11:10.731Z,6.70
2023-03-16T01:13:38.624Z,6.70
2023-03-16T01:16:06.089Z,6.70
2023-03-16T01:18:35.967Z,6.70
2023-03-16T01:21:05.145Z,6.70
2023-03-16T01:23:31.943Z,6.70
2023-03-16T01:25:59.448Z,6.70
2023-03-16T01:28:28.681Z,6.80
2023-03-16T01:30:59.580Z,6.70
2023-03-16T01:33:28.037Z,6.70
2023-03-16T01:36:01.886Z,6.80
2023-03-16T01:38:28.949Z,6.80
2023-03-16T01:40:55.904Z,6.90
2023-03-16T01:43:25.385Z,6.80
2023-03-16T01:45:57.627Z,6.80
2023-03-16T01:48:26.474Z,6.80
2023-03-16T01:50:53.852Z,6.90
2023-03-16T01:53:22.780Z,6.80
2023-03-16T01:55:50.724Z,6.80
2023-03-16T01:58:17.950Z,6.70
2023-03-16T02:00:45.733Z,6.70
2023-03-16T02:03:16.363Z,6.70
2023-03-16T02:05:57.803Z,6.80
2023-03-16T02:08:25.312Z,6.90
2023-03-16T02:10:54.573Z,6.90
2023-03-16T02:13:23.963Z,6.90
2023-03-16T02:15:52.354Z,6.90
2023-03-16T02:18:19.999Z,6.80
2023-03-16T02:20:52.751Z,6.80
2023-03-16T02:23:23.262Z,6.80
2023-03-16T02:25:58.598Z,6.90
2023-03-16T02:28:36.219Z,6.90
2023-03-16T02:31:04.728Z,6.90
2023-03-16T02:33:33.336Z,6.90
2023-03-16T02:36:00.028Z,6.90
2023-03-16T02:38:26.661Z,6.90
2023-03-16T02:41:10.651Z,6.90
2023-03-16T02:43:39.938Z,6.80
2023-03-16T02:46:07.457Z,6.90
2023-03-16T02:49:16.370Z,6.90
2023-03-16T02:51:45.281Z,6.90
2023-03-16T02:54:12.738Z,6.90
2023-03-16T02:56:39.743Z,6.80
2023-03-16T02:59:06.698Z,6.80
2023-03-16T03:01:34.889Z,6.90
2023-03-16T03:04:02.861Z,6.90
2023-03-16T03:06:30.079Z,6.90
2023-03-16T03:08:56.909Z,6.90
2023-03-16T03:11:23.692Z,6.90
2023-03-16T03:13:50.939Z,6.80
2023-03-16T03:16:17.681Z,6.80
2023-03-16T03:18:44.304Z,6.80
2023-03-16T03:21:10.973Z,6.80
2023-03-16T03:23:37.667Z,6.80
2023-03-16T03:26:05.106Z,6.80
2023-03-16T03:28:34.205Z,6.90
2023-03-16T03:31:01.739Z,6.80
2023-03-16T03:33:28.853Z,6.80
2023-03-16T03:35:57.482Z,6.80
2023-03-16T03:38:25.125Z,6.90
2023-03-16T03:40:53.407Z,6.70
2023-03-16T03:43:21.678Z,6.70
2023-03-16T03:45:48.313Z,6.80
2023-03-16T03:48:14.952Z,6.70
2023-03-16T03:50:41.790Z,6.70
2023-03-16T03:53:08.522Z,6.70
2023-03-16T03:55:35.189Z,6.70
2023-03-16T03:58:01.901Z,6.70
2023-03-16T04:00:28.863Z,6.70
2023-03-16T04:02:55.909Z,6.70
2023-03-16T04:05:22.622Z,6.60
2023-03-16T04:07:50.808Z,6.60
2023-03-16T04:10:17.473Z,6.60
2023-03-16T04:12:44.167Z,6.70
2023-03-16T04:15:12.492Z,6.60
2023-03-16T04:17:39.155Z,6.70
2023-03-16T04:20:12.655Z,6.70
2023-03-16T04:22:39.290Z,6.70
2023-03-16T04:25:06.068Z,6.60
2023-03-16T04:27:36.457Z,6.60
2023-03-16T04:30:11.185Z,6.60
2023-03-16T04:32:38.076Z,6.60
2023-03-16T04:35:05.642Z,6.60
2023-03-16T04:37:32.345Z,6.60
2023-03-16T04:39:59.049Z,6.60
2023-03-16T04:42:25.710Z,6.60
2023-03-16T04:44:52.403Z,6.60
2023-03-16T04:47:19.064Z,6.60
2023-03-16T04:49:46.214Z,6.60
2023-03-16T04:52:13.003Z,6.60
2023-03-16T04:54:39.696Z,6.60
2023-03-16T04:57:06.365Z,6.60
2023-03-16T04:59:33.072Z,6.70
2023-03-16T05:01:59.700Z,6.70
2023-03-16T05:04:26.385Z,6.60
2023-03-16T05:06:53.091Z,6.60
2023-03-16T05:09:20.681Z,6.70
2023-03-16T05:11:47.364Z,6.70
2023-03-16T05:14:14.052Z,6.70
2023-03-16T05:16:41.903Z,6.60
2023-03-16T05:19:08.793Z,6.60
2023-03-16T05:21:37.700Z,6.50
2023-03-16T05:24:08.098Z,6.50
2023-03-16T05:26:34.695Z,6.50
2023-03-16T05:29:01.977Z,6.50
2023-03-16T05:31:32.607Z,6.50
2023-03-16T05:33:59.549Z,6.50
2023-03-16T05:36:26.200Z,6.50
2023-03-16T05:38:52.888Z,6.50
2023-03-16T05:41:21.439Z,6.50
2023-03-16T05:43:48.218Z,6.50
2023-03-16T05:46:14.901Z,6.50
2023-03-16T05:48:41.568Z,6.50
2023-03-16T05:51:08.226Z,6.50
2023-03-16T05:53:35.529Z,6.50
2023-03-16T05:56:02.555Z,6.50
2023-03-16T05:58:29.502Z,6.50
2023-03-16T06:00:58.960Z,6.50
2023-03-16T06:03:25.960Z,6.40
2023-03-16T06:05:52.554Z,6.40
2023-03-16T06:08:19.434Z,6.40
2023-03-16T06:10:48.904Z,6.40
2023-03-16T06:13:15.591Z,6.50
2023-03-16T06:15:44.120Z,6.50
2023-03-16T06:18:10.898Z,6.40
2023-03-16T06:20:37.574Z,6.50
2023-03-16T06:23:04.382Z,6.50
2023-03-16T06:25:31.225Z,6.50
2023-03-16T06:27:57.966Z,6.50
2023-03-16T06:30:24.778Z,6.40
2023-03-16T06:32:52.117Z,6.40
2023-03-16T06:35:18.921Z,6.40
2023-03-16T06:37:45.589Z,6.50
2023-03-16T06:40:13.502Z,6.50
2023-03-16T06:42:40.202Z,6.50
2023-03-16T06:45:07.397Z,6.60
2023-03-16T06:47:34.096Z,6.60
2023-03-16T06:50:00.993Z,6.60
2023-03-16T06:52:27.753Z,6.60
2023-03-16T06:54:54.387Z,6.60
2023-03-16T06:57:21.388Z,6.50
2023-03-16T06:59:48.028Z,6.50
2023-03-16T07:02:15.259Z,6.50
2023-03-16T07:04:42.020Z,6.60
2023-03-16T07:07:09.685Z,6.60
2023-03-16T07:09:39.125Z,6.60
2023-03-16T07:12:07.352Z,6.60
2023-03-16T07:14:33.956Z,6.60
2023-03-16T07:17:01.621Z,6.60
2023-03-16T07:19:29.056Z,6.60
2023-03-16T07:21:55.693Z,6.60
2023-03-16T07:24:22.482Z,6.80
2023-03-16T07:26:49.261Z,6.80
2023-03-16T07:29:17.145Z,6.80
2023-03-16T07:31:44.210Z,6.70
2023-03-16T07:34:11.620Z,6.80
2023-03-16T07:36:38.493Z,6.80
2023-03-16T07:39:06.232Z,6.80
2023-03-16T07:41:32.984Z,6.80
2023-03-16T07:43:59.682Z,6.80
2023-03-16T07:46:26.564Z,6.80
2023-03-16T07:48:53.360Z,6.70
2023-03-16T07:51:20.088Z,6.70
2023-03-16T07:53:46.871Z,6.70
2023-03-16T07:56:13.570Z,6.80
2023-03-16T07:58:40.211Z,6.80
2023-03-16T08:01:06.898Z,6.80
2023-03-16T08:03:33.619Z,6.90
2023-03-16T08:06:00.351Z,6.90
2023-03-16T08:08:27.007Z,7.00
2023-03-16T08:10:55.624Z,7.10
2023-03-16T08:13:23.412Z,7.10
2023-03-16T08:15:58.332Z,7.20
2023-03-16T08:18:26.441Z,7.30
2023-03-16T08:20:53.537Z,7.40
2023-03-16T08:23:21.241Z,7.40
2023-03-16T08:25:51.813Z,7.40
2023-03-16T08:28:21.440Z,7.40
2023-03-16T08:30:50.958Z,7.30
2023-03-16T08:33:22.528Z,7.40
2023-03-16T08:35:49.763Z,7.40
2023-03-16T08:38:16.379Z,7.40
2023-03-16T08:40:48.378Z,7.50
2023-03-16T08:43:19.155Z,7.50
2023-03-16T08:45:46.602Z,7.60
2023-03-16T08:48:14.316Z,7.70
2023-03-16T08:50:43.267Z,7.70
2023-03-16T08:53:11.945Z,7.80
2023-03-16T08:55:38.608Z,7.70
2023-03-16T08:58:05.217Z,7.80
2023-03-16T09:00:31.886Z,7.80
2023-03-16T09:02:58.912Z,7.90
2023-03-16T09:05:25.689Z,7.90
2023-03-16T09:07:54.027Z,8.00
2023-03-16T09:10:23.039Z,8.00
2023-03-16T09:12:51.903Z,8.10
2023-03-16T09:15:20.706Z,8.20
2023-03-16T09:17:48.322Z,8.10
2023-03-16T09:20:26.859Z,8.10
2023-03-16T09:22:56.852Z,8.20
2023-03-16T09:25:25.402Z,8.10
2023-03-16T09:27:52.815Z,8.20
2023-03-16T09:30:19.773Z,8.20
2023-03-16T09:32:48.755Z,8.20
2023-03-16T09:35:15.674Z,8.20
2023-03-16T09:37:45.600Z,8.30
2023-03-16T09:40:26.556Z,8.30
2023-03-16T09:43:31.563Z,8.40
2023-03-16T09:46:12.784Z,8.50
2023-03-16T09:48:41.097Z,8.70
2023-03-16T09:51:20.269Z,8.80
2023-03-16T09:53:48.729Z,8.90
2023-03-16T09:56:40.755Z,9.00
2023-03-16T09:59:13.488Z,9.20
2023-03-16T10:01:57.367Z,9.50
2023-03-16T10:04:53.071Z,9.50
2023-03-16T10:08:04.512Z,9.70
2023-03-16T10:10:56.055Z,9.80
2023-03-16T10:13:31.914Z,9.90
2023-03-16T10:16:02.574Z,9.80
2023-03-16T10:18:35.777Z,9.80
2023-03-16T10:21:03.149Z,9.90
2023-03-16T10:23:34.423Z,10.10
2023-03-16T10:26:09.507Z,10.30
2023-03-16T10:28:37.639Z,10.40
2023-03-16T10:31:04.845Z,10.70
2023-03-16T10:33:34.074Z,10.90
2023-03-16T10:36:05.598Z,10.90
2023-03-16T10:38:41.027Z,11.10
2023-03-16T10:41:20.454Z,11.20
2023-03-16T10:43:52.268Z,11.10
2023-03-16T10:46:19.146Z,11.30
2023-03-16T10:49:00.012Z,11.50
2023-03-16T10:51:36.459Z,11.60
2023-03-16T10:54:14.168Z,11.50
2023-03-16T10:56:40.910Z,11.50
2023-03-16T10:59:38.194Z,11.50
2023-03-16T11:02:20.655Z,11.40
2023-03-16T11:04:47.916Z,11.40
2023-03-16T11:07:19.136Z,11.30
2023-03-16T11:09:47.771Z,11.40
2023-03-16T11:12:26.399Z,11.40
2023-03-16T11:14:54.115Z,11.50
2023-03-16T11:17:39.776Z,11.50
2023-03-16T11:20:20.507Z,11.60
2023-03-16T11:22:48.554Z,11.60
2023-03-16T11:25:21.488Z,11.60
2023-03-16T11:28:11.896Z,11.60
2023-03-16T11:30:51.708Z,11.70
2023-03-16T11:33:18.486Z,11.70
2023-03-16T11:36:00.945Z,11.70
2023-03-16T11:38:36.176Z,11.80
2023-03-16T11:41:20.215Z,11.80
2023-03-16T11:43:57.734Z,11.90
2023-03-16T11:46:36.632Z,12.00
2023-03-16T11:49:45.637Z,12.00
2023-03-16T11:52:25.231Z,12.10
2023-03-16T11:55:16.087Z,12.30
2023-03-16T11:57:51.230Z,12.30
2023-03-16T12:00:24.472Z,12.40
2023-03-16T12:02:59.014Z,12.40
2023-03-16T12:05:48.518Z,12.50
2023-03-16T12:08:36.258Z,12.60
2023-03-16T12:11:07.697Z,12.80
2023-03-16T12:14:28.769Z,13.00
2023-03-16T12:17:02.635Z,13.00
2023-03-16T12:20:01.988Z,13.10
2023-03-16T12:22:38.752Z,13.10
2023-03-16T12:25:16.771Z,13.10
2023-03-16T12:27:45.438Z,13.00
2023-03-16T12:30:50.610Z,13.10
2023-03-16T12:33:55.188Z,13.10
2023-03-16T12:36:52.565Z,13.10
2023-03-16T12:39:32.560Z,13.10
2023-03-16T12:42:39.840Z,13.20
2023-03-16T12:45:16.426Z,13.40
2023-03-16T12:48:14.523Z,13.40
2023-03-16T12:50:50.404Z,13.50
2023-03-16T12:53:51.627Z,13.70
2023-03-16T12:56:21.398Z,13.80
2023-03-16T12:58:50.566Z,13.90
2023-03-16T13:01:20.769Z,14.20
2023-03-16T13:03:50.466Z,14.20
2023-03-16T13:06:19.682Z,14.30
2023-03-16T13:08:52.394Z,14.50
2023-03-16T13:11:19.272Z,14.50
2023-03-16T13:13:52.627Z,14.50
2023-03-16T13:16:33.614Z,14.70
2023-03-16T13:19:00.857Z,14.70
2023-03-16T13:21:37.655Z,14.60
2023-03-16T13:24:22.961Z,14.40
2023-03-16T13:26:53.567Z,14.30
2023-03-16T13:29:22.951Z,14.40
2023-03-16T13:31:51.422Z,14.50
2023-03-16T13:34:30.757Z,14.50
2023-03-16T13:36:59.612Z,14.40
2023-03-16T13:39:31.293Z,14.30
2023-03-16T13:41:59.780Z,14.40
2023-03-16T13:44:29.397Z,14.50
2023-03-16T13:46:56.431Z,14.50
2023-03-16T13:49:23.612Z,14.60
2023-03-16T13:51:50.361Z,14.70
2023-03-16T13:54:28.275Z,14.80
2023-03-16T13:57:02.861Z,14.90
2023-03-16T13:59:30.066Z,15.00
2023-03-16T14:01:59.826Z,15.00
2023-03-16T14:04:29.674Z,15.00
2023-03-16T14:07:01.828Z,15.10
2023-03-16T14:09:31.892Z,15.10
2023-03-16T14:11:58.828Z,15.00
2023-03-16T14:14:29.872Z,14.90
2023-03-16T14:17:10.479Z,14.90
2023-03-16T14:19:51.429Z,15.00
2023-03-16T14:22:24.356Z,14.80
2023-03-16T14:25:00.705Z,14.90
2023-03-16T14:27:39.299Z,14.90
2023-03-16T14:30:27.621Z,15.00
2023-03-16T14:33:05.467Z,15.00
2023-03-16T14:35:56.290Z,15.00
2023-03-16T14:38:31.039Z,15.00
2023-03-16T14:41:03.832Z,15.00
2023-03-16T14:43:33.615Z,14.90
2023-03-16T14:46:03.772Z,14.80
2023-03-16T14:48:30.496Z,14.60
2023-03-16T14:51:02.343Z,14.50
2023-03-16T14:53:30.041Z,14.50
2023-03-16T14:55:58.077Z,14.50
2023-03-16T14:58:25.626Z,14.60
2023-03-16T15:00:53.820Z,14.80
2023-03-16T15:03:23.718Z,14.70
2023-03-16T15:05:52.037Z,14.70
2023-03-16T15:08:31.498Z,14.60
2023-03-16T15:11:01.621Z,14.60
2023-03-16T15:13:47.120Z,14.70
2023-03-16T15:16:15.035Z,14.70
2023-03-16T15:18:42.568Z,14.80
2023-03-16T15:21:18.003Z,14.80
2023-03-16T15:23:44.743Z,14.80
2023-03-16T15:26:13.288Z,14.80
2023-03-16T15:28:40.109Z,14.80
2023-03-16T15:31:07.393Z,14.80
2023-03-16T15:33:34.013Z,14.90
2023-03-16T15:36:07.088Z,15.00
2023-03-16T15:38:36.567Z,14.90
2023-03-16T15:41:03.507Z,14.80
2023-03-16T15:43:31.986Z,14.90
2023-03-16T15:45:59.844Z,14.90
2023-03-16T15:48:26.971Z,14.80
2023-03-16T15:50:57.036Z,14.90
2023-03-16T15:53:31.318Z,14.80
2023-03-16T15:56:05.837Z,14.90
2023-03-16T15:58:34.636Z,14.90
2023-03-16T16:01:02.881Z,14.90
2023-03-16T16:03:29.708Z,14.80
2023-03-16T16:05:56.542Z,14.70
2023-03-16T16:08:23.269Z,14.80
2023-03-16T16:10:53.112Z,14.80
2023-03-16T16:13:43.105Z,14.70
2023-03-16T16:16:13.698Z,14.80
2023-03-16T16:18:41.057Z,14.80
2023-03-16T16:21:14.749Z,14.80
2023-03-16T16:23:41.540Z,14.70
2023-03-16T16:26:20.076Z,14.70
2023-03-16T16:28:47.571Z,14.60
2023-03-16T16:31:14.563Z,14.50
2023-03-16T16:33:41.232Z,14.60
2023-03-16T16:36:20.990Z,14.60
2023-03-16T16:38:49.020Z,14.50
2023-03-16T16:41:36.354Z,14.50
2023-03-16T16:44:08.213Z,14.50
2023-03-16T16:46:42.474Z,14.60
2023-03-16T16:49:28.101Z,14.60
2023-03-16T16:51:55.397Z,14.50
2023-03-16T16:54:40.320Z,14.40
2023-03-16T16:57:17.077Z,14.30
2023-03-16T16:59:46.993Z,14.30
2023-03-16T17:02:31.917Z,14.20
2023-03-16T17:04:58.709Z,14.30
2023-03-16T17:07:25.759Z,14.20
2023-03-16T17:09:52.483Z,14.10
2023-03-16T17:12:22.789Z,14.10
2023-03-16T17:14:50.498Z,14.10
2023-03-16T17:17:18.785Z,14.00
2023-03-16T17:19:46.933Z,14.00
2023-03-16T17:22:24.544Z,13.90
2023-03-16T17:24:52.277Z,13.90
2023-03-16T17:27:28.858Z,13.80
2023-03-16T17:29:57.043Z,13.70
2023-03-16T17:32:23.791Z,13.70
2023-03-16T17:34:51.545Z,13.60
2023-03-16T17:37:21.032Z,13.60
2023-03-16T17:39:47.772Z,13.50
2023-03-16T17:42:19.688Z,13.50
2023-03-16T17:44:51.232Z,13.40
2023-03-16T17:47:25.423Z,13.40
2023-03-16T17:49:52.597Z,13.30
2023-03-16T17:52:23.233Z,13.40
2023-03-16T17:54:52.008Z,13.30
2023-03-16T17:57:28.304Z,13.20
2023-03-16T17:59:55.434Z,13.10
2023-03-16T18:02:39.622Z,13.00
2023-03-16T18:05:15.656Z,13.00
2023-03-16T18:07:44.928Z,13.00
2023-03-16T18:10:17.053Z,13.00
2023-03-16T18:12:45.397Z,13.00
2023-03-16T18:15:18.800Z,13.00
2023-03-16T18:17:46.146Z,13.00
2023-03-16T18:20:24.448Z,12.90
2023-03-16T18:22:51.121Z,12.90
2023-03-16T18:25:31.424Z,12.90
2023-03-16T18:27:58.747Z,12.80
2023-03-16T18:30:26.047Z,12.80
2023-03-16T18:32:53.464Z,12.80
2023-03-16T18:35:20.547Z,12.80
2023-03-16T18:37:47.826Z,12.70
2023-03-16T18:40:17.030Z,12.70
2023-03-16T18:42:43.817Z,12.60
2023-03-16T18:45:12.481Z,12.60
2023-03-16T18:47:43.780Z,12.60
2023-03-16T18:50:28.553Z,12.60
2023-03-16T18:52:56.614Z,12.60
2023-03-16T18:55:24.987Z,12.60
2023-03-16T18:57:56.291Z,12.50
2023-03-16T19:00:29.693Z,12.40
2023-03-16T19:03:03.144Z,12.40
2023-03-16T19:05:35.749Z,12.30
2023-03-16T19:08:04.358Z,12.30
2023-03-16T19:10:35.432Z,12.40
2023-03-16T19:13:02.153Z,12.30
2023-03-16T19:15:33.917Z,12.20
2023-03-16T19:18:00.692Z,12.20
2023-03-16T19:20:32.626Z,12.10
2023-03-16T19:23:17.071Z,12.10
2023-03-16T19:25:45.301Z,12.00
2023-03-16T19:28:25.453Z,12.00
2023-03-16T19:30:52.109Z,12.00
2023-03-16T19:33:27.938Z,11.90
2023-03-16T19:35:55.992Z,11.90
2023-03-16T19:38:24.215Z,11.90
2023-03-16T19:41:00.604Z,11.90
2023-03-16T19:43:28.590Z,11.90
2023-03-16T19:45:56.476Z,11.80
2023-03-16T19:48:32.729Z,11.70
2023-03-16T19:51:00.303Z,11.70
2023-03-16T19:53:27.523Z,11.70
2023-03-16T19:55:54.622Z,11.70
2023-03-16T19:58:33.198Z,11.70
2023-03-16T20:01:01.087Z,11.60
2023-03-16T20:03:31.640Z,11.50
2023-03-16T20:05:58.283Z,11.60
2023-03-16T20:08:28.503Z,11.50
2023-03-16T20:11:02.838Z,11.60
2023-03-16T20:13:31.395Z,11.50
2023-03-16T20:15:58.116Z,11.50
2023-03-16T20:18:24.792Z,11.40
2023-03-16T20:20:51.606Z,11.30
2023-03-16T20:23:29.346Z,11.30
2023-03-16T20:26:01.957Z,11.30
2023-03-16T20:28:36.529Z,11.30
2023-03-16T20:31:05.165Z,11.40
2023-03-16T20:33:32.055Z,11.40
2023-03-16T20:35:58.703Z,11.30
2023-03-16T20:38:25.614Z,11.20
2023-03-16T20:40:54.348Z,11.30
2023-03-16T20:43:24.530Z,11.20
2023-03-16T20:45:54.297Z,11.20
2023-03-16T20:48:21.811Z,11.30
2023-03-16T20:50:48.520Z,11.20
2023-03-16T20:53:15.220Z,11.20
2023-03-16T20:55:42.448Z,11.20
2023-03-16T20:58:19.606Z,11.20
2023-03-16T21:00:47.185Z,11.20
2023-03-16T21:03:24.975Z,11.20
2023-03-16T21:05:53.507Z,11.10
2023-03-16T21:08:20.464Z,11.10
2023-03-16T21:10:49.594Z,11.20
2023-03-16T21:13:27.781Z,11.20
2023-03-16T21:15:56.156Z,11.10
2023-03-16T21:18:23.385Z,11.10
2023-03-16T21:20:51.227Z,11.10
2023-03-16T21:23:21.131Z,11.10
2023-03-16T21:25:56.757Z,11.10
2023-03-16T21:28:25.827Z,11.10
2023-03-16T21:30:54.891Z,11.10
2023-03-16T21:33:29.928Z,11.10
2023-03-16T21:35:57.980Z,11.10
2023-03-16T21:38:26.412Z,11.10
2023-03-16T21:40:53.476Z,11.00
2023-03-16T21:43:20.905Z,11.00
2023-03-16T21:45:48.654Z,11.00
2023-03-16T21:48:32.363Z,10.90
2023-03-16T21:50:59.511Z,10.80
2023-03-16T21:53:29.019Z,10.90
2023-03-16T21:55:56.344Z,10.90
2023-03-16T21:58:24.117Z,10.80
2023-03-16T22:00:52.647Z,10.80
2023-03-16T22:03:47.993Z,10.80
2023-03-16T22:06:17.104Z,10.80
2023-03-16T22:08:43.957Z,10.80
2023-03-16T22:11:19.883Z,10.70
2023-03-16T22:13:47.176Z,10.70
2023-03-16T22:16:17.210Z,10.70
2023-03-16T22:18:45.872Z,10.70
2023-03-16T22:21:37.462Z,10.70
2023-03-16T22:24:20.409Z,10.80
2023-03-16T22:26:48.866Z,10.70
2023-03-16T22:29:28.211Z,10.70
2023-03-16T22:32:04.390Z,10.70
2023-03-16T22:34:41.514Z,10.70
2023-03-16T22:37:10.184Z,10.70
2023-03-16T22:39:38.243Z,10.60
2023-03-16T22:42:26.963Z,10.70
2023-03-16T22:44:55.424Z,10.60
2023-03-16T22:47:24.128Z,10.60
2023-03-16T22:49:50.895Z,10.60
2023-03-16T22:52:18.336Z,10.50
2023-03-16T22:54:46.352Z,10.60
2023-03-16T22:57:16.171Z,10.60
2023-03-16T22:59:44.839Z,10.50
2023-03-16T23:02:15.765Z,10.50
2023-03-16T23:04:42.583Z,10.60
2023-03-16T23:07:13.690Z,10.60
2023-03-16T23:09:41.225Z,10.60
2023-03-16T23:12:26.118Z,10.50
2023-03-16T23:14:52.750Z,10.50
2023-03-16T23:17:22.081Z,10.50
2023-03-16T23:19:48.964Z,10.50
2023-03-16T23:22:15.982Z,10.50
2023-03-16T23:24:43.125Z,10.50
2023-03-16T23:27:17.572Z,10.50
2023-03-16T23:29:44.651Z,10.40
2023-03-16T23:32:11.578Z,10.40
2023-03-16T23:34:38.268Z,10.40
2023-03-16T23:37:04.928Z,10.40
2023-03-16T23:39:31.615Z,10.30
2023-03-16T23:41:58.358Z,10.30
2023-03-16T23:44:28.762Z,10.30
2023-03-16T23:46:56.012Z,10.20
2023-03-16T23:49:26.272Z,10.30
2023-03-16T23:51:55.662Z,10.30
2023-03-16T23:54:25.420Z,10.30
2023-03-16T23:56:52.434Z,10.20
2023-03-16T23:59:20.308Z,10.20
